Time,TemperatureF,DewpointF,PressureIn,WindDirection,WindDirectionDegrees,WindSpeedMPH,WindSpeedGustMPH,Humidity,HourlyPrecipIn,Conditions,Clouds,dailyrainin,SoftwareType,DateUTC
2014-01-03 00:12:00,12.0,7.0,30.39,NNW,347,3.0,6.0,79,0.00,,,0.13,,2014-01-03 05:12:00,
2014-01-03 00:22:00,12.0,7.0,30.39,NNW,347,3.0,6.0,79,0.00,,,0.13,,2014-01-03 05:22:00,
2014-01-03 00:43:00,12.0,7.0,30.40,NNW,346,3.0,6.0,79,0.00,,,0.12,,2014-01-03 05:43:00,
2014-01-03 00:53:00,12.0,7.0,30.40,NNW,347,3.0,6.0,79,0.00,,,0.12,,2014-01-03 05:53:00,
2014-01-03 01:12:00,11.0,6.0,30.41,NNW,347,3.0,6.0,78,0.00,,,0.12,,2014-01-03 06:12:00,
2014-01-03 01:22:00,11.0,6.0,30.41,NNW,347,3.0,6.0,78,0.00,,,0.12,,2014-01-03 06:22:00,
2014-01-03 01:42:00,10.0,5.0,30.42,NNW,347,4.0,4.0,81,0.00,,,0.09,,2014-01-03 06:42:00,
2014-01-03 01:53:00,10.0,6.0,30.42,NNW,347,3.0,4.0,82,0.00,,,0.09,,2014-01-03 06:53:00,
2014-01-03 02:12:00,10.0,6.0,30.43,NNW,347,2.0,4.0,84,0.00,,,0.09,,2014-01-03 07:12:00,
2014-01-03 02:22:00,10.0,6.0,30.43,NNW,347,2.0,4.0,84,0.00,,,0.09,,2014-01-03 07:22:00,
2014-01-03 02:42:00,9.0,5.0,30.43,NNW,347,0.0,3.0,85,0.00,,,0.08,,2014-01-03 07:42:00,
2014-01-03 02:52:00,9.0,6.0,30.43,NNW,347,1.0,3.0,86,0.00,,,0.08,,2014-01-03 07:52:00,
2014-01-03 03:21:00,9.0,6.0,30.44,NNW,346,2.0,4.0,86,0.00,,,0.08,,2014-01-03 08:21:00,
2014-01-03 03:42:00,8.0,5.0,30.46,NNW,346,2.0,4.0,86,0.00,,,0.06,,2014-01-03 08:42:00,
2014-01-03 03:52:00,8.0,5.0,30.46,NNW,346,2.0,4.0,86,0.00,,,0.06,,2014-01-03 08:52:00,
2014-01-03 04:21:00,8.0,5.0,30.47,NNW,347,1.0,4.0,87,0.00,,,0.06,,2014-01-03 09:21:00,
2014-01-03 04:43:00,8.0,5.0,30.47,NNW,346,0.0,3.0,87,0.00,,,0.04,,2014-01-03 09:43:00,
2014-01-03 04:53:00,8.0,5.0,30.47,NNW,347,0.0,3.0,87,0.00,,,0.04,,2014-01-03 09:53:00,
2014-01-03 05:13:00,7.0,4.0,30.47,NNW,347,0.0,3.0,87,0.00,,,0.04,,2014-01-03 10:13:00,
2014-01-03 05:23:00,7.0,4.0,30.47,NNW,347,0.0,3.0,87,0.00,,,0.04,,2014-01-03 10:23:00,
2014-01-03 05:52:00,6.0,3.0,30.48,NNW,347,0.0,1.0,88,0.00,,,0.03,,2014-01-03 10:52:00,
2014-01-03 06:22:00,6.0,3.0,30.48,NNW,346,0.0,1.0,87,0.00,,,0.03,,2014-01-03 11:22:00,
2014-01-03 06:42:00,5.0,2.0,30.49,NNW,347,0.0,0.0,87,0.00,,,0.01,,2014-01-03 11:42:00,
2014-01-03 06:53:00,5.0,2.0,30.49,NNW,347,0.0,0.0,87,0.00,,,0.01,,2014-01-03 11:53:00,
2014-01-03 07:22:00,4.0,1.0,30.50,NNW,346,1.0,1.0,86,0.00,,,0.01,,2014-01-03 12:22:00,
2014-01-03 07:52:00,3.0,0.0,30.51,NNW,347,0.0,2.0,87,0.00,,,0.00,,2014-01-03 12:52:00,
2014-01-03 08:11:00,3.0,0.0,30.52,NNW,347,2.0,2.0,87,0.00,,,0.00,,2014-01-03 13:11:00,
2014-01-03 08:22:00,3.0,0.0,30.52,NNW,347,2.0,2.0,87,0.00,,,0.00,,2014-01-03 13:22:00,
2014-01-03 08:32:00,3.0,0.0,30.52,NNW,347,2.0,2.0,87,0.00,,,0.00,,2014-01-03 13:32:00,
2014-01-03 08:52:00,3.0,0.0,30.53,NNW,346,0.0,2.0,87,0.00,,,0.00,,2014-01-03 13:52:00,
2014-01-03 09:22:00,3.0,0.0,30.54,NNW,346,0.0,2.0,88,0.00,,,0.00,,2014-01-03 14:22:00,
2014-01-03 09:42:00,4.0,2.0,30.54,NNW,347,0.0,0.0,89,0.00,,,0.00,,2014-01-03 14:42:00,
2014-01-03 09:52:00,4.0,2.0,30.54,NNW,347,0.0,0.0,89,0.00,,,0.00,,2014-01-03 14:52:00,
2014-01-03 10:22:00,8.0,6.0,30.57,NNW,347,1.0,3.0,90,0.00,,,0.00,,2014-01-03 15:22:00,
2014-01-03 10:53:00,11.0,9.0,30.58,NNW,347,2.0,4.0,90,0.00,,,0.00,,2014-01-03 15:53:00,
2014-01-03 11:13:00,12.0,9.0,30.58,NNW,345,2.0,4.0,89,0.00,,,0.00,,2014-01-03 16:13:00,
2014-01-03 11:23:00,12.0,9.0,30.58,NNW,345,2.0,4.0,89,0.00,,,0.00,,2014-01-03 16:23:00,
2014-01-03 11:33:00,12.0,9.0,30.58,NNW,345,2.0,4.0,89,0.00,,,0.00,,2014-01-03 16:33:00,
2014-01-03 11:52:00,20.0,13.0,30.55,NNW,347,3.0,4.0,74,0.00,,,0.00,,2014-01-03 16:52:00,
2014-01-03 12:22:00,21.0,13.0,30.53,NNW,347,0.0,4.0,71,0.01,,,0.01,,2014-01-03 17:22:00,
2014-01-03 12:53:00,24.0,14.0,30.51,NNW,347,3.0,6.0,64,0.02,,,0.02,,2014-01-03 17:53:00,
2014-01-03 13:22:00,24.0,13.0,30.49,NNW,347,0.0,6.0,62,0.03,,,0.03,,2014-01-03 18:22:00,
2014-01-03 13:42:00,25.0,12.0,30.49,NNW,346,4.0,7.0,58,0.02,,,0.03,,2014-01-03 18:42:00,
2014-01-03 13:52:00,25.0,12.0,30.49,NNW,346,4.0,7.0,58,0.02,,,0.03,,2014-01-03 18:52:00,
2014-01-03 14:01:00,25.0,12.0,30.49,NNW,346,4.0,7.0,58,0.02,,,0.03,,2014-01-03 19:01:00,
2014-01-03 14:22:00,25.0,14.0,30.47,NNW,347,4.0,7.0,62,0.02,,,0.03,,2014-01-03 19:22:00,
2014-01-03 14:42:00,25.0,13.0,30.45,NNW,346,1.0,7.0,60,0.01,,,0.04,,2014-01-03 19:42:00,
2014-01-03 14:52:00,25.0,13.0,30.45,NNW,346,1.0,7.0,60,0.01,,,0.04,,2014-01-03 19:52:00,
2014-01-03 15:02:00,25.0,13.0,30.45,NNW,346,1.0,7.0,60,0.01,,,0.04,,2014-01-03 20:02:00,
2014-01-03 15:21:00,24.0,13.0,30.44,NNW,347,6.0,8.0,63,0.01,,,0.04,,2014-01-03 20:21:00,
2014-01-03 15:42:00,24.0,14.0,30.44,NNW,346,4.0,8.0,65,0.01,,,0.04,,2014-01-03 20:42:00,
2014-01-03 15:52:00,24.0,14.0,30.44,NNW,346,4.0,8.0,65,0.01,,,0.04,,2014-01-03 20:52:00,
2014-01-03 16:12:00,24.0,14.0,30.42,NNW,346,3.0,8.0,65,0.01,,,0.04,,2014-01-03 21:12:00,
2014-01-03 16:21:00,24.0,14.0,30.42,NNW,346,3.0,8.0,65,0.01,,,0.04,,2014-01-03 21:21:00,
2014-01-03 16:43:00,24.0,14.0,30.41,NNW,347,5.0,9.0,65,0.00,,,0.04,,2014-01-03 21:43:00,
2014-01-03 16:53:00,25.0,14.0,30.41,NNW,347,0.0,9.0,63,0.00,,,0.04,,2014-01-03 21:53:00,
2014-01-03 17:03:00,25.0,14.0,30.41,NNW,347,0.0,9.0,63,0.00,,,0.04,,2014-01-03 22:03:00,
2014-01-03 17:23:00,24.0,14.0,30.40,NNW,346,3.0,9.0,65,0.00,,,0.04,,2014-01-03 22:23:00,
2014-01-03 17:42:00,24.0,14.0,30.39,NNW,347,3.0,9.0,65,0.00,,,0.04,,2014-01-03 22:42:00,
2014-01-03 17:53:00,23.0,13.0,30.38,NNW,347,0.0,9.0,66,0.00,,,0.04,,2014-01-03 22:53:00,
2014-01-03 18:12:00,23.0,14.0,30.38,NNW,346,1.0,9.0,67,0.00,,,0.04,,2014-01-03 23:12:00,
2014-01-03 18:21:00,23.0,14.0,30.38,NNW,346,1.0,9.0,67,0.00,,,0.04,,2014-01-03 23:21:00,
2014-01-03 18:43:00,22.0,13.0,30.37,NNW,347,3.0,8.0,68,0.00,,,0.04,,2014-01-03 23:43:00,
2014-01-03 18:52:00,22.0,13.0,30.37,NNW,347,2.0,10.0,68,0.00,,,0.04,,2014-01-03 23:52:00,
2014-01-03 19:12:00,22.0,13.0,30.37,NNW,346,3.0,10.0,68,0.00,,,0.04,,2014-01-04 00:12:00,
2014-01-03 19:22:00,22.0,13.0,30.37,NNW,346,3.0,10.0,68,0.00,,,0.04,,2014-01-04 00:22:00,
2014-01-03 19:32:00,22.0,13.0,30.37,NNW,346,3.0,10.0,68,0.00,,,0.04,,2014-01-04 00:32:00,
2014-01-03 19:42:00,22.0,13.0,30.37,NNW,346,3.0,10.0,68,0.00,,,0.04,,2014-01-04 00:42:00,
2014-01-03 19:52:00,22.0,13.0,30.37,NNW,346,3.0,10.0,68,0.00,,,0.04,,2014-01-04 00:52:00,
2014-01-03 20:22:00,21.0,12.0,30.35,NNW,347,4.0,10.0,69,0.00,,,0.04,,2014-01-04 01:22:00,
2014-01-03 20:52:00,21.0,13.0,30.34,NNW,347,2.0,8.0,71,0.00,,,0.04,,2014-01-04 01:52:00,
2014-01-03 21:11:00,20.0,12.0,30.33,NNW,347,2.0,8.0,71,0.00,,,0.04,,2014-01-04 02:11:00,
2014-01-03 21:22:00,20.0,12.0,30.33,NNW,347,2.0,8.0,71,0.00,,,0.04,,2014-01-04 02:22:00,
2014-01-03 21:42:00,20.0,12.0,30.31,NNW,347,2.0,10.0,72,0.00,,,0.04,,2014-01-04 02:42:00,
2014-01-03 21:52:00,20.0,12.0,30.31,NNW,347,2.0,10.0,72,0.00,,,0.04,,2014-01-04 02:52:00,
2014-01-03 22:22:00,20.0,12.0,30.28,NNW,346,1.0,10.0,72,0.00,,,0.04,,2014-01-04 03:22:00,
2014-01-03 22:43:00,20.0,12.0,30.28,NNW,346,0.0,6.0,72,0.00,,,0.04,,2014-01-04 03:43:00,
2014-01-03 22:54:00,20.0,12.0,30.28,NNW,347,3.0,6.0,72,0.00,,,0.04,,2014-01-04 03:54:00,
2014-01-03 23:22:00,20.0,12.0,30.26,NNW,346,3.0,9.0,71,0.00,,,0.04,,2014-01-04 04:22:00,
2014-01-03 23:52:00,20.0,13.0,30.25,NNW,346,3.0,10.0,73,0.00,,,0.04,,2014-01-04 04:52:00,